Time;durP1;ratioP1;P1;durP2;ratioP2;P2;SDS_P1;SDS_P2;PMS_P1;PMS_P2;Temp;Humidity;BMP_temperature;BMP_pressure;BME280_temperature;BME280_humidity;BME280_pressure;Samples;Min_cycle;Max_cycle;Signal;HPM_P1;HPM_P2
2022/07/02 00:00:27;;;;;;;5.33;4.83;;;;;;;;;;5013110;28;20238;-75
2022/07/02 00:02:55;;;;;;;8.50;4.93;;;;;;;;;;4954387;28;20273;-76
2022/07/02 00:05:22;;;;;;;5.23;4.73;;;;;;;;;;4981291;28;20230;-75
2022/07/02 00:07:50;;;;;;;5.73;5.10;;;;;;;;;;4964198;28;20626;-75
2022/07/02 00:10:18;;;;;;;5.07;4.73;;;;;;;;;;4931557;28;20217;-74
2022/07/02 00:12:44;;;;;;;5.93;4.87;;;;;;;;;;4964404;28;20225;-75
2022/07/02 00:15:10;;;;;;;5.60;5.10;;;;;;;;;;4946595;28;20230;-75
2022/07/02 00:17:38;;;;;;;5.87;5.37;;;;;;;;;;4996924;28;20309;-76
2022/07/02 00:20:04;;;;;;;5.60;5.10;;;;;;;;;;4960671;28;20230;-76
2022/07/02 00:22:30;;;;;;;6.00;5.50;;;;;;;;;;4963994;28;20813;-75
2022/07/02 00:24:55;;;;;;;5.33;4.93;;;;;;;;;;4981707;28;20221;-75
2022/07/02 00:27:20;;;;;;;5.10;4.60;;;;;;;;;;4971257;28;20233;-76
2022/07/02 00:30:02;;;;;;;5.17;4.77;;;;;;;;;;4937099;28;20744;-75
2022/07/02 00:32:34;;;;;;;5.33;4.80;;;;;;;;;;4965359;28;20345;-76
2022/07/02 00:35:12;;;;;;;5.87;5.30;;;;;;;;;;4984170;28;20225;-75
2022/07/02 00:37:40;;;;;;;5.43;4.93;;;;;;;;;;4984722;28;20309;-75
2022/07/02 00:40:11;;;;;;;7.17;5.53;;;;;;;;;;4951281;28;20220;-76
2022/07/02 00:42:37;;;;;;;5.63;5.13;;;;;;;;;;4941669;28;20771;-74
2022/07/02 00:45:08;;;;;;;5.80;5.30;;;;;;;;;;4986192;28;20327;-75
2022/07/02 00:47:39;;;;;;;5.50;5.00;;;;;;;;;;4982458;28;20238;-75
2022/07/02 00:50:05;;;;;;;5.63;5.13;;;;;;;;;;4939710;28;20719;-74
2022/07/02 00:52:31;;;;;;;5.73;5.30;;;;;;;;;;4967382;28;20221;-75
2022/07/02 00:55:04;;;;;;;5.80;5.30;;;;;;;;;;4972626;28;20229;-74
2022/07/02 00:57:31;;;;;;;5.20;4.80;;;;;;;;;;4965355;28;20579;-74
2022/07/02 01:00:04;;;;;;;5.40;5.00;;;;;;;;;;4966224;28;20222;-74
2022/07/02 01:02:32;;;;;;;5.77;4.70;;;;;;;;;;4951222;28;20226;-75
2022/07/02 01:04:59;;;;;;;5.60;5.00;;;;;;;;;;4948535;28;20264;-74
2022/07/02 01:07:28;;;;;;;5.20;4.80;;;;;;;;;;4967023;28;20727;-74
2022/07/02 01:12:38;;;;;;;4.97;4.63;;;;;;;;;;4992884;28;20250;-74
2022/07/02 01:15:06;;;;;;;5.00;4.60;;;;;;;;;;4955079;28;20700;-74
2022/07/02 01:17:32;;;;;;;5.37;4.87;;;;;;;;;;4949998;28;20298;-74
2022/07/02 01:20:01;;;;;;;5.33;4.93;;;;;;;;;;4983054;28;20222;-74
2022/07/02 01:22:36;;;;;;;5.60;5.10;;;;;;;;;;4953563;28;20234;-74
2022/07/02 01:25:02;;;;;;;5.50;5.00;;;;;;;;;;4983305;28;20225;-74
2022/07/02 01:27:30;;;;;;;5.60;5.10;;;;;;;;;;4989738;28;20230;-74
2022/07/02 01:29:59;;;;;;;5.40;5.00;;;;;;;;;;4952545;28;20814;-74
2022/07/02 01:32:24;;;;;;;5.60;5.10;;;;;;;;;;4933106;28;20245;-74
2022/07/02 01:34:54;;;;;;;5.10;4.77;;;;;;;;;;4936874;28;20226;-74
2022/07/02 01:37:20;;;;;;;5.00;4.60;;;;;;;;;;4965174;28;20241;-73
2022/07/02 01:39:48;;;;;;;5.37;4.70;;;;;;;;;;4983029;28;20962;-74
2022/07/02 01:42:19;;;;;;;4.57;4.17;;;;;;;;;;4965895;28;20234;-75
2022/07/02 01:44:45;;;;;;;4.93;4.53;;;;;;;;;;4984993;28;20219;-73
2022/07/02 01:47:13;;;;;;;5.07;4.67;;;;;;;;;;4966370;28;20305;-74
2022/07/02 01:49:43;;;;;;;5.03;4.63;;;;;;;;;;4953295;28;20218;-73
2022/07/02 01:52:15;;;;;;;4.77;4.37;;;;;;;;;;4965503;28;20305;-74
2022/07/02 01:54:41;;;;;;;4.93;4.47;;;;;;;;;;4951415;28;20225;-74
2022/07/02 01:57:09;;;;;;;5.20;4.80;;;;;;;;;;4950802;28;20214;-74
2022/07/02 01:59:37;;;;;;;4.93;4.50;;;;;;;;;;4995776;28;20227;-74
2022/07/02 02:02:03;;;;;;;5.50;5.00;;;;;;;;;;4980933;28;20606;-73
2022/07/02 02:04:33;;;;;;;5.93;4.57;;;;;;;;;;4940465;28;20297;-73
2022/07/02 02:07:01;;;;;;;5.27;4.77;;;;;;;;;;4966082;28;20680;-73
2022/07/02 02:09:29;;;;;;;5.30;4.87;;;;;;;;;;4948364;28;20218;-75
2022/07/02 02:11:57;;;;;;;5.70;5.30;;;;;;;;;;4980973;28;20230;-74
2022/07/02 02:14:24;;;;;;;6.57;5.10;;;;;;;;;;4952179;28;20727;-74
2022/07/02 02:16:52;;;;;;;5.53;5.00;;;;;;;;;;4955193;28;20598;-74
2022/07/02 02:19:18;;;;;;;5.80;5.30;;;;;;;;;;4998011;28;20256;-74
2022/07/02 02:21:43;;;;;;;5.40;4.90;;;;;;;;;;4934686;28;20226;-74
2022/07/02 02:24:11;;;;;;;6.30;5.77;;;;;;;;;;4981854;28;20220;-74
2022/07/02 02:26:37;;;;;;;6.10;5.50;;;;;;;;;;4980883;28;20348;-74
2022/07/02 02:29:02;;;;;;;6.03;5.53;;;;;;;;;;4991719;28;20226;-74
2022/07/02 02:31:28;;;;;;;6.87;5.77;;;;;;;;;;4972665;28;20235;-74
2022/07/02 02:33:53;;;;;;;6.07;5.57;;;;;;;;;;4972925;28;20226;-75
2022/07/02 02:36:21;;;;;;;6.10;5.60;;;;;;;;;;4938772;28;20214;-75
2022/07/02 02:38:53;;;;;;;6.43;5.83;;;;;;;;;;4982213;28;20847;-75
2022/07/02 02:41:19;;;;;;;6.23;5.63;;;;;;;;;;4951557;28;20230;-74
2022/07/02 02:43:44;;;;;;;6.60;5.93;;;;;;;;;;4986733;28;20222;-74
2022/07/02 02:46:14;;;;;;;6.50;5.77;;;;;;;;;;4978745;28;20218;-74
2022/07/02 02:48:44;;;;;;;6.17;5.60;;;;;;;;;;4943589;28;20271;-74
2022/07/02 02:51:13;;;;;;;6.00;5.50;;;;;;;;;;4979620;28;20226;-74
2022/07/02 02:53:42;;;;;;;6.83;5.80;;;;;;;;;;4934099;28;20325;-75
2022/07/02 02:56:10;;;;;;;6.20;5.60;;;;;;;;;;4965317;28;20673;-75
2022/07/02 02:58:36;;;;;;;5.60;5.17;;;;;;;;;;4965290;28;20607;-75
2022/07/02 03:01:01;;;;;;;6.00;5.40;;;;;;;;;;4982207;28;20333;-75
2022/07/02 03:03:27;;;;;;;6.20;5.60;;;;;;;;;;5066099;28;20226;-75
2022/07/02 03:05:55;;;;;;;5.53;5.03;;;;;;;;;;4984835;28;20250;-75
2022/07/02 03:08:21;;;;;;;5.83;5.27;;;;;;;;;;4933555;28;20226;-75
2022/07/02 03:10:51;;;;;;;5.73;5.23;;;;;;;;;;4951122;28;20234;-75
2022/07/02 03:13:19;;;;;;;5.53;5.03;;;;;;;;;;4966526;28;20226;-74
2022/07/02 03:15:47;;;;;;;7.17;4.80;;;;;;;;;;4933918;28;20249;-75
2022/07/02 03:18:12;;;;;;;6.07;5.30;;;;;;;;;;4963569;28;20311;-75
2022/07/02 03:20:40;;;;;;;6.30;4.93;;;;;;;;;;4965264;28;20704;-75
2022/07/02 03:23:06;;;;;;;4.27;3.73;;;;;;;;;;4930142;28;20222;-75
2022/07/02 03:25:32;;;;;;;4.53;4.13;;;;;;;;;;4958071;28;20232;-75
2022/07/02 03:28:01;;;;;;;7.53;3.90;;;;;;;;;;4965083;28;20225;-75
2022/07/02 03:30:32;;;;;;;4.20;3.90;;;;;;;;;;4964949;28;20248;-75
2022/07/02 03:33:00;;;;;;;4.97;4.47;;;;;;;;;;4964279;28;20230;-75
2022/07/02 03:35:26;;;;;;;4.10;3.80;;;;;;;;;;4947226;28;20225;-74
2022/07/02 03:37:51;;;;;;;4.40;4.10;;;;;;;;;;4981093;28;20902;-77
2022/07/02 03:40:19;;;;;;;4.20;3.90;;;;;;;;;;4947524;28;20683;-77
2022/07/02 03:42:44;;;;;;;4.30;4.00;;;;;;;;;;4954538;28;20232;-77
2022/07/02 03:45:10;;;;;;;5.30;4.00;;;;;;;;;;4954564;28;20230;-78
2022/07/02 03:47:35;;;;;;;3.87;3.63;;;;;;;;;;4984025;28;20241;-77
2022/07/02 03:50:04;;;;;;;5.00;3.87;;;;;;;;;;4951367;28;20218;-80
2022/07/02 03:52:36;;;;;;;3.50;3.30;;;;;;;;;;4926088;28;20226;-78
2022/07/02 03:55:04;;;;;;;3.70;3.40;;;;;;;;;;4956603;28;20222;-76
2022/07/02 03:57:30;;;;;;;6.23;3.80;;;;;;;;;;4950358;28;20221;-77
2022/07/02 03:59:58;;;;;;;4.53;3.77;;;;;;;;;;4945690;28;20230;-77
2022/07/02 04:02:23;;;;;;;3.93;3.53;;;;;;;;;;4926435;28;20229;-77
2022/07/02 04:04:51;;;;;;;4.50;3.77;;;;;;;;;;4983826;28;20226;-77
2022/07/02 04:07:17;;;;;;;3.50;3.20;;;;;;;;;;4923688;28;20230;-76
2022/07/02 04:09:45;;;;;;;3.43;3.20;;;;;;;;;;4966451;28;20222;-75
2022/07/02 04:12:15;;;;;;;3.37;3.00;;;;;;;;;;4959801;28;20237;-75
2022/07/02 04:14:43;;;;;;;3.70;3.40;;;;;;;;;;4969364;28;20966;-75
2022/07/02 04:17:11;;;;;;;3.63;3.10;;;;;;;;;;4985599;28;20210;-75
2022/07/02 04:19:39;;;;;;;3.43;3.13;;;;;;;;;;5003861;28;20218;-76
2022/07/02 04:22:05;;;;;;;3.47;3.27;;;;;;;;;;4941139;28;20598;-76
2022/07/02 04:24:30;;;;;;;4.10;3.70;;;;;;;;;;4966961;28;20251;-75
2022/07/02 04:26:56;;;;;;;4.07;3.67;;;;;;;;;;4954831;28;20344;-75
2022/07/02 04:29:22;;;;;;;4.20;3.80;;;;;;;;;;4917016;28;21852;-75
2022/07/02 04:31:48;;;;;;;4.30;3.93;;;;;;;;;;5026148;23;20708;-75
2022/07/02 04:34:16;;;;;;;4.30;4.00;;;;;;;;;;5008934;28;20216;-75
2022/07/02 04:36:42;;;;;;;4.67;4.30;;;;;;;;;;5014212;28;20223;-74
2022/07/02 04:39:08;;;;;;;4.30;4.00;;;;;;;;;;5016456;28;20219;-73
2022/07/02 04:41:38;;;;;;;5.27;4.37;;;;;;;;;;5039253;28;20227;-72
2022/07/02 04:44:04;;;;;;;4.27;3.97;;;;;;;;;;5029639;28;20223;-74
2022/07/02 04:46:29;;;;;;;4.43;3.97;;;;;;;;;;5040996;28;20598;-75
2022/07/02 04:48:55;;;;;;;5.63;4.00;;;;;;;;;;5036880;28;20227;-75
2022/07/02 04:51:21;;;;;;;4.87;3.87;;;;;;;;;;5039917;28;20242;-75
2022/07/02 04:53:47;;;;;;;4.27;3.90;;;;;;;;;;5024245;28;20227;-74
2022/07/02 04:56:12;;;;;;;4.53;3.93;;;;;;;;;;5023313;28;20224;-73
2022/07/02 04:58:38;;;;;;;4.30;3.90;;;;;;;;;;5026573;28;20219;-73
2022/07/02 05:01:06;;;;;;;4.33;4.03;;;;;;;;;;5015004;28;20370;-77
2022/07/02 05:03:32;;;;;;;4.60;3.67;;;;;;;;;;5028887;28;20269;-72
2022/07/02 05:05:57;;;;;;;4.33;3.97;;;;;;;;;;5019491;28;20599;-73
2022/07/02 05:08:27;;;;;;;4.13;3.83;;;;;;;;;;5013201;28;20230;-73
2022/07/02 05:10:53;;;;;;;5.20;3.60;;;;;;;;;;5028358;28;20239;-73
2022/07/02 05:13:22;;;;;;;3.63;3.43;;;;;;;;;;5027837;28;20220;-74
2022/07/02 05:15:51;;;;;;;4.10;3.70;;;;;;;;;;5016790;28;20239;-77
2022/07/02 05:18:16;;;;;;;4.05;3.72;;;;;;;;;;5031578;28;20220;-74
2022/07/02 05:20:42;;;;;;;4.43;4.03;;;;;;;;;;5015684;28;20246;-74
2022/07/02 05:23:12;;;;;;;7.00;4.10;;;;;;;;;;5029580;28;20219;-76
2022/07/02 05:25:38;;;;;;;4.13;3.77;;;;;;;;;;5022441;28;20262;-77
2022/07/02 05:28:04;;;;;;;5.27;3.90;;;;;;;;;;4997287;28;20227;-76
2022/07/02 05:30:32;;;;;;;5.82;4.00;;;;;;;;;;5012665;28;20227;-76
2022/07/02 05:32:57;;;;;;;4.30;3.67;;;;;;;;;;5005609;28;20247;-75
2022/07/02 05:35:23;;;;;;;4.65;3.78;;;;;;;;;;5024920;28;20648;-76
2022/07/02 05:37:49;;;;;;;3.95;3.65;;;;;;;;;;5011647;28;20219;-78
2022/07/02 05:40:14;;;;;;;4.28;3.67;;;;;;;;;;5044951;28;20231;-75
2022/07/02 05:42:44;;;;;;;4.30;3.45;;;;;;;;;;5023772;28;20224;-75
2022/07/02 05:45:10;;;;;;;3.67;3.30;;;;;;;;;;5012272;28;20219;-77
2022/07/02 05:47:38;;;;;;;3.60;3.30;;;;;;;;;;5026802;28;20220;-78
2022/07/02 05:50:04;;;;;;;4.65;3.17;;;;;;;;;;5040712;28;20293;-76
2022/07/02 05:52:30;;;;;;;3.22;2.92;;;;;;;;;;5022023;28;20242;-78
2022/07/02 05:54:57;;;;;;;4.97;3.00;;;;;;;;;;5009320;28;20216;-77
2022/07/02 05:57:23;;;;;;;3.08;2.80;;;;;;;;;;5011139;28;20216;-77
2022/07/02 05:59:53;;;;;;;2.95;2.60;;;;;;;;;;5024717;28;20215;-77
2022/07/02 06:02:22;;;;;;;4.38;2.60;;;;;;;;;;4998480;28;20231;-77
2022/07/02 06:04:48;;;;;;;3.03;2.33;;;;;;;;;;5028979;28;20748;-76
2022/07/02 06:09:58;;;;;;;3.53;2.40;;;;;;;;;;5040324;28;20255;-76
2022/07/02 06:12:23;;;;;;;6.13;2.75;;;;;;;;;;5021173;28;20221;-77
2022/07/02 06:14:49;;;;;;;4.40;2.50;;;;;;;;;;5022804;28;20223;-78
2022/07/02 06:17:17;;;;;;;4.32;2.70;;;;;;;;;;5003425;28;20562;-75
2022/07/02 06:19:45;;;;;;;3.53;2.20;;;;;;;;;;5012061;28;20285;-73
2022/07/02 06:22:13;;;;;;;3.22;2.20;;;;;;;;;;5009285;28;20233;-77
2022/07/02 06:24:39;;;;;;;5.70;2.30;;;;;;;;;;5019974;28;20225;-77
2022/07/02 06:27:07;;;;;;;3.60;2.30;;;;;;;;;;5011301;28;20227;-76
2022/07/02 06:29:35;;;;;;;4.82;2.10;;;;;;;;;;5014916;28;20223;-76
2022/07/02 06:32:04;;;;;;;2.50;2.00;;;;;;;;;;5023508;28;20712;-76
2022/07/02 06:34:29;;;;;;;3.85;1.98;;;;;;;;;;5039655;28;20284;-78
2022/07/02 06:36:55;;;;;;;2.65;2.05;;;;;;;;;;5030529;28;20261;-76
2022/07/02 06:39:20;;;;;;;3.70;1.88;;;;;;;;;;5029328;28;20759;-77
2022/07/02 06:44:30;;;;;;;3.33;1.63;;;;;;;;;;5027525;28;20216;-77
2022/07/02 06:46:56;;;;;;;2.50;1.80;;;;;;;;;;5007238;28;20215;-78
2022/07/02 06:49:24;;;;;;;2.70;1.63;;;;;;;;;;4937944;28;20335;-77
2022/07/02 06:51:50;;;;;;;2.22;1.50;;;;;;;;;;5010009;28;20765;-78
2022/07/02 06:54:18;;;;;;;3.38;1.60;;;;;;;;;;5021765;28;20315;-75
2022/07/02 06:56:46;;;;;;;3.72;1.45;;;;;;;;;;5019140;28;20217;-76
2022/07/02 06:59:14;;;;;;;4.55;1.50;;;;;;;;;;5018438;28;20223;-78
2022/07/02 07:01:40;;;;;;;4.22;1.50;;;;;;;;;;5042127;28;20227;-76
2022/07/02 07:04:07;;;;;;;1.50;1.20;;;;;;;;;;4932809;28;20221;-75
2022/07/02 07:06:36;;;;;;;3.30;1.20;;;;;;;;;;5022807;28;20262;-75
2022/07/02 07:09:05;;;;;;;3.10;1.20;;;;;;;;;;5018838;28;20302;-76
2022/07/02 07:11:31;;;;;;;4.80;1.30;;;;;;;;;;4957163;28;20224;-77
2022/07/02 07:13:56;;;;;;;1.98;1.20;;;;;;;;;;5011594;28;20212;-75
2022/07/02 07:16:22;;;;;;;1.50;1.00;;;;;;;;;;5027969;28;20231;-78
2022/07/02 07:19:08;;;;;;;2.42;1.10;;;;;;;;;;5011366;28;20603;-76
2022/07/02 07:21:34;;;;;;;2.47;1.02;;;;;;;;;;5033910;28;20589;-76
2022/07/02 07:24:03;;;;;;;2.53;1.20;;;;;;;;;;5037698;28;20216;-76
2022/07/02 07:26:29;;;;;;;2.50;1.00;;;;;;;;;;5021704;28;20219;-77
2022/07/02 07:28:55;;;;;;;4.30;1.20;;;;;;;;;;5023347;28;20227;-78
2022/07/02 07:31:21;;;;;;;1.92;1.05;;;;;;;;;;5042633;28;20247;-76
2022/07/02 07:33:55;;;;;;;1.95;0.82;;;;;;;;;;5006664;28;20294;-79
2022/07/02 07:36:24;;;;;;;2.33;1.13;;;;;;;;;;5034888;28;20441;-78
2022/07/02 07:39:05;;;;;;;2.58;0.90;;;;;;;;;;4962408;28;20213;-76
2022/07/02 07:41:31;;;;;;;1.83;0.90;;;;;;;;;;4926264;28;20223;-75
2022/07/02 07:43:56;;;;;;;3.17;1.08;;;;;;;;;;5044442;28;20803;-76
2022/07/02 07:46:25;;;;;;;3.70;1.08;;;;;;;;;;5022230;28;20244;-78
2022/07/02 07:48:52;;;;;;;2.95;1.00;;;;;;;;;;5040100;28;20223;-77
2022/07/02 07:51:23;;;;;;;3.30;1.08;;;;;;;;;;5035628;28;20219;-78
2022/07/02 07:53:51;;;;;;;1.63;0.93;;;;;;;;;;5031038;28;20286;-76
2022/07/02 07:56:17;;;;;;;1.80;1.17;;;;;;;;;;5003160;28;20215;-77
2022/07/02 07:58:48;;;;;;;3.97;1.05;;;;;;;;;;5039223;28;20227;-77
2022/07/02 08:01:16;;;;;;;3.22;1.20;;;;;;;;;;4993823;28;20239;-74
2022/07/02 08:03:44;;;;;;;3.42;1.30;;;;;;;;;;5006444;28;20216;-76
2022/07/02 08:06:11;;;;;;;2.67;1.15;;;;;;;;;;4961004;28;20286;-77
2022/07/02 08:08:37;;;;;;;2.72;0.93;;;;;;;;;;5001638;28;20232;-78
2022/07/02 08:11:03;;;;;;;4.07;1.13;;;;;;;;;;5001909;28;20247;-77
2022/07/02 08:13:29;;;;;;;3.13;1.20;;;;;;;;;;5013610;28;20310;-74
2022/07/02 08:15:54;;;;;;;2.47;1.13;;;;;;;;;;5028582;28;20299;-76
2022/07/02 08:18:20;;;;;;;3.33;1.30;;;;;;;;;;5027257;28;20582;-75
2022/07/02 08:20:45;;;;;;;2.97;1.10;;;;;;;;;;5003435;28;20230;-77
2022/07/02 08:23:11;;;;;;;1.75;1.00;;;;;;;;;;5031846;28;20396;-76
2022/07/02 08:25:39;;;;;;;3.65;1.08;;;;;;;;;;5010519;28;20262;-75
2022/07/02 08:28:09;;;;;;;4.32;1.10;;;;;;;;;;5011275;28;20220;-76
2022/07/02 08:30:37;;;;;;;3.05;1.02;;;;;;;;;;5038234;28;20322;-76
2022/07/02 08:33:02;;;;;;;2.45;0.90;;;;;;;;;;5008064;28;20236;-76
2022/07/02 08:35:28;;;;;;;2.95;1.20;;;;;;;;;;5039121;28;20247;-75
2022/07/02 08:37:53;;;;;;;3.38;1.20;;;;;;;;;;5025860;28;20220;-73
2022/07/02 08:40:25;;;;;;;2.05;1.10;;;;;;;;;;5020335;28;20227;-73
2022/07/02 08:42:52;;;;;;;1.38;0.80;;;;;;;;;;5026510;28;20224;-72
2022/07/02 08:45:19;;;;;;;2.75;1.20;;;;;;;;;;4981072;28;20218;-74
2022/07/02 08:47:47;;;;;;;2.05;0.95;;;;;;;;;;5023076;28;20231;-72
2022/07/02 08:50:15;;;;;;;2.92;1.17;;;;;;;;;;5010881;28;20924;-72
2022/07/02 08:52:41;;;;;;;2.22;0.85;;;;;;;;;;5009272;28;20612;-73
2022/07/02 08:55:07;;;;;;;3.90;1.10;;;;;;;;;;5012412;28;20219;-71
2022/07/02 08:57:33;;;;;;;2.75;0.90;;;;;;;;;;5014882;28;20258;-73
2022/07/02 09:00:00;;;;;;;2.80;0.90;;;;;;;;;;4923137;28;20227;-74
2022/07/02 09:02:28;;;;;;;2.47;0.88;;;;;;;;;;4979267;28;20632;-74
2022/07/02 09:04:54;;;;;;;2.15;0.98;;;;;;;;;;5008141;28;20204;-73
2022/07/02 09:07:21;;;;;;;4.55;0.75;;;;;;;;;;5022561;28;20220;-73
2022/07/02 09:09:49;;;;;;;1.52;1.05;;;;;;;;;;5020930;28;20282;-73
2022/07/02 09:12:15;;;;;;;2.50;1.00;;;;;;;;;;5029545;28;20655;-74
2022/07/02 09:14:43;;;;;;;2.90;0.90;;;;;;;;;;5039525;28;20308;-74
2022/07/02 09:17:10;;;;;;;2.10;0.70;;;;;;;;;;5029911;28;20230;-76
2022/07/02 09:19:36;;;;;;;3.42;1.00;;;;;;;;;;5035562;28;20238;-74
2022/07/02 09:22:05;;;;;;;1.63;0.85;;;;;;;;;;5042659;28;20711;-73
2022/07/02 09:24:35;;;;;;;3.80;1.10;;;;;;;;;;5043215;28;20243;-74
2022/07/02 09:27:14;;;;;;;7.57;1.00;;;;;;;;;;5048134;28;20223;-74
2022/07/02 09:29:57;;;;;;;3.47;0.93;;;;;;;;;;5022566;28;20219;-75
2022/07/02 09:32:23;;;;;;;3.30;1.05;;;;;;;;;;5020862;28;20224;-74
2022/07/02 09:34:50;;;;;;;1.60;0.95;;;;;;;;;;4998938;28;20234;-74
2022/07/02 09:37:19;;;;;;;1.33;0.70;;;;;;;;;;4998518;28;20208;-73
2022/07/02 09:39:48;;;;;;;2.78;0.70;;;;;;;;;;5041526;28;20222;-74
2022/07/02 09:42:28;;;;;;;2.45;1.08;;;;;;;;;;5026952;28;20286;-73
2022/07/02 09:44:54;;;;;;;3.08;0.90;;;;;;;;;;5040137;28;20311;-73
2022/07/02 09:47:35;;;;;;;2.03;1.10;;;;;;;;;;5038197;28;20306;-72
2022/07/02 09:50:10;;;;;;;3.55;1.10;;;;;;;;;;5023615;28;20374;-73
2022/07/02 09:52:45;;;;;;;2.45;0.98;;;;;;;;;;5023788;28;20988;-73
2022/07/02 09:55:20;;;;;;;1.85;0.90;;;;;;;;;;5036401;28;20223;-74
2022/07/02 09:57:50;;;;;;;2.20;1.02;;;;;;;;;;5042354;28;20222;-72
2022/07/02 10:00:16;;;;;;;2.05;0.85;;;;;;;;;;5013531;28;20759;-74
2022/07/02 10:02:44;;;;;;;1.88;0.93;;;;;;;;;;5039317;28;20231;-74
2022/07/02 10:05:09;;;;;;;1.73;0.77;;;;;;;;;;5040009;28;20212;-74
2022/07/02 10:07:37;;;;;;;1.80;0.93;;;;;;;;;;5038200;28;20616;-74
2022/07/02 10:10:04;;;;;;;1.83;1.00;;;;;;;;;;5012591;28;20758;-74
2022/07/02 10:12:29;;;;;;;1.33;0.80;;;;;;;;;;5025614;28;20223;-74
2022/07/02 10:14:55;;;;;;;3.83;0.88;;;;;;;;;;5040932;28;20623;-72
2022/07/02 10:17:21;;;;;;;3.90;0.80;;;;;;;;;;5027531;28;20333;-73
2022/07/02 10:19:48;;;;;;;3.05;0.90;;;;;;;;;;4989323;28;20255;-73
2022/07/02 10:22:16;;;;;;;1.73;0.70;;;;;;;;;;5010129;28;20228;-73
2022/07/02 10:24:42;;;;;;;3.50;0.70;;;;;;;;;;5005317;28;20222;-74
2022/07/02 10:27:07;;;;;;;1.45;0.75;;;;;;;;;;4999673;28;20220;-72
2022/07/02 10:29:33;;;;;;;1.92;0.90;;;;;;;;;;5029740;28;20227;-74
2022/07/02 10:32:32;;;;;;;1.75;0.82;;;;;;;;;;4995551;28;20231;-74
2022/07/02 10:35:11;;;;;;;2.80;1.05;;;;;;;;;;5028750;28;20610;-73
2022/07/02 10:37:38;;;;;;;1.42;0.60;;;;;;;;;;5022588;28;20221;-73
2022/07/02 10:40:07;;;;;;;2.10;0.77;;;;;;;;;;5009546;28;20230;-73
2022/07/02 10:42:48;;;;;;;4.32;1.10;;;;;;;;;;5019654;28;20235;-73
2022/07/02 10:45:21;;;;;;;0.60;0.57;;;;;;;;;;5024038;28;20219;-75
2022/07/02 10:48:00;;;;;;;1.30;0.80;;;;;;;;;;5011481;28;20303;-72
2022/07/02 10:50:35;;;;;;;2.97;0.90;;;;;;;;;;5026543;28;20218;-73
2022/07/02 10:53:24;;;;;;;1.70;0.77;;;;;;;;;;5054176;28;20223;-73
2022/07/02 10:55:55;;;;;;;2.60;0.70;;;;;;;;;;5030493;28;20310;-75
2022/07/02 10:58:25;;;;;;;1.70;0.60;;;;;;;;;;5047729;28;20228;-73
2022/07/02 11:00:51;;;;;;;0.90;0.63;;;;;;;;;;5032818;28;20223;-74
2022/07/02 11:03:20;;;;;;;3.33;0.70;;;;;;;;;;5050855;28;20234;-73
2022/07/02 11:06:05;;;;;;;1.90;0.70;;;;;;;;;;5037713;28;20255;-73
2022/07/02 11:08:44;;;;;;;1.27;0.73;;;;;;;;;;5038621;28;20235;-73
2022/07/02 11:11:13;;;;;;;0.93;0.60;;;;;;;;;;5027365;28;20219;-73
2022/07/02 11:13:47;;;;;;;3.47;0.88;;;;;;;;;;5020613;28;20690;-74
2022/07/02 11:16:41;;;;;;;1.40;0.70;;;;;;;;;;5039771;28;20247;-73
2022/07/02 11:19:17;;;;;;;2.72;0.70;;;;;;;;;;5023231;28;20277;-74
2022/07/02 11:21:43;;;;;;;2.55;0.60;;;;;;;;;;5027890;28;20235;-73
2022/07/02 11:24:13;;;;;;;2.13;0.80;;;;;;;;;;5025733;28;20226;-73
2022/07/02 11:26:42;;;;;;;2.45;0.70;;;;;;;;;;5022132;28;20630;-72
2022/07/02 11:29:10;;;;;;;1.25;0.68;;;;;;;;;;5027631;28;20242;-73
2022/07/02 11:31:39;;;;;;;2.08;0.80;;;;;;;;;;5009704;28;20690;-75
2022/07/02 11:34:07;;;;;;;2.10;0.70;;;;;;;;;;5035253;28;20211;-74
2022/07/02 11:36:33;;;;;;;2.80;0.85;;;;;;;;;;5022501;28;20258;-74
2022/07/02 11:38:58;;;;;;;1.10;1.00;;;;;;;;;;4995705;28;20402;-74
2022/07/02 11:41:29;;;;;;;2.45;0.90;;;;;;;;;;5044803;28;20224;-74
2022/07/02 11:43:56;;;;;;;2.83;0.90;;;;;;;;;;5021618;28;20227;-72
2022/07/02 11:46:25;;;;;;;1.65;0.90;;;;;;;;;;5024076;28;20277;-73
2022/07/02 11:48:54;;;;;;;1.45;0.60;;;;;;;;;;5008244;28;20227;-71
2022/07/02 11:51:22;;;;;;;3.00;0.90;;;;;;;;;;5016123;28;20232;-75
2022/07/02 11:54:01;;;;;;;2.38;0.88;;;;;;;;;;5037452;28;20220;-75
2022/07/02 11:56:28;;;;;;;1.23;0.60;;;;;;;;;;5037403;28;20226;-76
2022/07/02 11:58:53;;;;;;;2.03;0.90;;;;;;;;;;5027106;28;20247;-76
2022/07/02 12:01:25;;;;;;;1.42;0.60;;;;;;;;;;5007539;28;20245;-76
2022/07/02 12:03:55;;;;;;;0.95;0.85;;;;;;;;;;5038484;28;20285;-75
2022/07/02 12:06:23;;;;;;;1.42;0.55;;;;;;;;;;5024325;28;20353;-75
2022/07/02 12:08:56;;;;;;;2.67;0.73;;;;;;;;;;5023499;28;20255;-76
2022/07/02 12:11:22;;;;;;;1.00;0.90;;;;;;;;;;5041940;28;20652;-78
2022/07/02 12:13:47;;;;;;;1.30;0.70;;;;;;;;;;5013258;28;20293;-78
2022/07/02 12:16:18;;;;;;;2.05;0.70;;;;;;;;;;5002201;28;20230;-77
2022/07/02 12:18:44;;;;;;;2.83;0.80;;;;;;;;;;5006640;28;20227;-76
2022/07/02 12:21:19;;;;;;;1.27;0.80;;;;;;;;;;5020599;28;20223;-76
2022/07/02 12:23:49;;;;;;;2.47;0.77;;;;;;;;;;4981534;28;20694;-78
2022/07/02 12:26:22;;;;;;;2.25;0.77;;;;;;;;;;5029157;28;20227;-77
2022/07/02 12:31:53;;;;;;;1.85;0.75;;;;;;;;;;5020429;28;20238;-76
2022/07/02 12:34:20;;;;;;;2.28;0.80;;;;;;;;;;5043550;28;20305;-77
2022/07/02 12:36:51;;;;;;;1.73;0.90;;;;;;;;;;5011924;28;20216;-76
2022/07/02 12:39:17;;;;;;;2.20;1.00;;;;;;;;;;4991615;28;20293;-77
2022/07/02 12:41:43;;;;;;;2.80;0.80;;;;;;;;;;5050314;28;20227;-77
2022/07/02 12:44:24;;;;;;;2.35;0.70;;;;;;;;;;5011661;28;20243;-78
2022/07/02 12:46:51;;;;;;;4.40;0.90;;;;;;;;;;4974490;28;20314;-78
2022/07/02 12:49:20;;;;;;;2.20;0.80;;;;;;;;;;5012943;28;20301;-75
2022/07/02 12:52:12;;;;;;;1.75;0.80;;;;;;;;;;5013209;28;20224;-75
2022/07/02 12:54:39;;;;;;;1.33;0.73;;;;;;;;;;5011385;28;20216;-74
2022/07/02 12:57:13;;;;;;;1.15;0.80;;;;;;;;;;5031070;28;20708;-76
2022/07/02 12:59:39;;;;;;;0.90;0.80;;;;;;;;;;5037877;28;20223;-75
2022/07/02 13:02:10;;;;;;;1.00;0.63;;;;;;;;;;4922011;28;20741;-76
2022/07/02 13:04:36;;;;;;;0.70;0.70;;;;;;;;;;4998093;28;20737;-76
2022/07/02 13:07:02;;;;;;;2.13;0.73;;;;;;;;;;5026457;28;20220;-75
2022/07/02 13:09:27;;;;;;;1.73;0.90;;;;;;;;;;5031070;28;20220;-74
2022/07/02 13:11:55;;;;;;;2.15;0.88;;;;;;;;;;5026885;28;20672;-76
2022/07/02 13:14:26;;;;;;;1.15;0.70;;;;;;;;;;5023839;28;20316;-76
2022/07/02 13:16:51;;;;;;;3.55;1.02;;;;;;;;;;5028852;28;20223;-76
2022/07/02 13:19:17;;;;;;;2.75;0.80;;;;;;;;;;5038198;28;20708;-74
2022/07/02 13:21:43;;;;;;;3.42;0.98;;;;;;;;;;4932558;28;20232;-73
2022/07/02 13:24:08;;;;;;;2.58;0.77;;;;;;;;;;5027318;28;20219;-76
2022/07/02 13:26:34;;;;;;;2.13;0.73;;;;;;;;;;5026725;28;20211;-76
2022/07/02 13:29:00;;;;;;;1.27;0.65;;;;;;;;;;5041041;28;20223;-77
2022/07/02 13:31:28;;;;;;;1.25;0.73;;;;;;;;;;5025774;28;20277;-76
2022/07/02 13:33:54;;;;;;;1.30;0.80;;;;;;;;;;5024275;28;20311;-75
2022/07/02 13:36:21;;;;;;;0.73;0.70;;;;;;;;;;4923507;28;20233;-76
2022/07/02 13:38:47;;;;;;;2.55;0.88;;;;;;;;;;4994022;28;20250;-76
2022/07/02 13:41:13;;;;;;;1.65;0.80;;;;;;;;;;5017064;28;20231;-75
2022/07/02 13:43:38;;;;;;;0.90;0.70;;;;;;;;;;5009841;28;20207;-76
2022/07/02 13:46:04;;;;;;;0.98;0.60;;;;;;;;;;5040866;28;20216;-75
2022/07/02 13:48:32;;;;;;;0.88;0.68;;;;;;;;;;5012968;28;20246;-75
2022/07/02 13:50:58;;;;;;;1.23;0.80;;;;;;;;;;5024918;28;20700;-74
2022/07/02 13:53:23;;;;;;;3.03;0.75;;;;;;;;;;5028086;28;20226;-78
2022/07/02 13:55:49;;;;;;;0.80;0.60;;;;;;;;;;5013575;28;20808;-74
2022/07/02 13:58:19;;;;;;;1.92;0.88;;;;;;;;;;4992799;28;20232;-73
2022/07/02 14:00:48;;;;;;;1.35;0.75;;;;;;;;;;5009807;28;20227;-74
2022/07/02 14:03:13;;;;;;;2.65;0.90;;;;;;;;;;4916187;28;20220;-74
2022/07/02 14:05:42;;;;;;;1.77;0.90;;;;;;;;;;5020608;28;20220;-75
2022/07/02 14:08:07;;;;;;;1.48;0.70;;;;;;;;;;5013921;28;20258;-74
2022/07/02 14:10:33;;;;;;;1.70;0.80;;;;;;;;;;5021330;28;20223;-75
2022/07/02 14:12:59;;;;;;;1.85;0.80;;;;;;;;;;5023794;28;20216;-74
2022/07/02 14:15:24;;;;;;;2.20;0.80;;;;;;;;;;5021186;28;20958;-74
2022/07/02 14:17:50;;;;;;;2.35;0.73;;;;;;;;;;5026305;28;20697;-74
2022/07/02 14:20:19;;;;;;;1.17;0.70;;;;;;;;;;5028622;28;20215;-74
2022/07/02 14:22:45;;;;;;;3.08;0.90;;;;;;;;;;5004793;28;20216;-74
2022/07/02 14:25:10;;;;;;;0.95;0.70;;;;;;;;;;5028122;28;20730;-76
2022/07/02 14:27:38;;;;;;;1.30;0.63;;;;;;;;;;5012453;28;20239;-77
2022/07/02 14:30:04;;;;;;;1.67;0.70;;;;;;;;;;5023042;28;20637;-76
2022/07/02 14:32:32;;;;;;;0.73;0.70;;;;;;;;;;5039307;28;20334;-77
2022/07/02 14:34:58;;;;;;;2.20;0.80;;;;;;;;;;5023200;28;20287;-75
2022/07/02 14:37:30;;;;;;;1.17;0.60;;;;;;;;;;5039745;28;20232;-75
2022/07/02 14:39:56;;;;;;;1.65;0.80;;;;;;;;;;4938924;28;20258;-74
2022/07/02 14:42:21;;;;;;;0.85;0.70;;;;;;;;;;5018071;28;20259;-74
2022/07/02 14:44:47;;;;;;;1.42;0.73;;;;;;;;;;5008827;28;20223;-76
2022/07/02 14:47:13;;;;;;;0.70;0.70;;;;;;;;;;4994351;28;20733;-74
2022/07/02 14:49:38;;;;;;;1.40;0.60;;;;;;;;;;5010029;28;20658;-74
2022/07/02 14:52:06;;;;;;;0.80;0.70;;;;;;;;;;5033080;28;20224;-75
2022/07/02 14:54:32;;;;;;;2.85;0.80;;;;;;;;;;5022064;28;20432;-76
2022/07/02 14:56:58;;;;;;;1.10;0.80;;;;;;;;;;5023827;28;20230;-76
2022/07/02 14:59:26;;;;;;;1.50;0.90;;;;;;;;;;5013091;28;20215;-76